createdAt,value
2023-03-19T00:00:31.492Z,29.45
2023-03-19T00:02:00.600Z,36.60
2023-03-19T00:03:31.469Z,33.85
2023-03-19T00:04:54.376Z,36.67
2023-03-19T00:06:21.357Z,35.47
2023-03-19T00:07:43.817Z,29.90
2023-03-19T00:09:07.320Z,28.30
2023-03-19T00:10:40.783Z,29.17
2023-03-19T00:12:12.237Z,31.52
2023-03-19T00:13:33.508Z,30.52
2023-03-19T00:15:27.542Z,32.28
2023-03-19T00:17:02.402Z,34.35
2023-03-19T00:18:23.523Z,35.75
2023-03-19T00:20:06.261Z,34.00
2023-03-19T00:21:30.815Z,32.28
2023-03-19T00:22:53.245Z,30.30
2023-03-19T00:24:17.675Z,32.30
2023-03-19T00:25:39.730Z,27.75
2023-03-19T00:27:03.925Z,32.83
2023-03-19T00:28:27.477Z,33.65
2023-03-19T00:29:52.740Z,32.72
2023-03-19T00:31:21.770Z,30.35
2023-03-19T00:32:47.423Z,35.50
2023-03-19T00:34:10.612Z,31.88
2023-03-19T00:35:32.121Z,32.60
2023-03-19T00:38:18.045Z,30.77
2023-03-19T00:39:43.076Z,29.35
2023-03-19T00:41:06.143Z,33.35
2023-03-19T00:42:34.165Z,32.70
2023-03-19T00:43:57.409Z,34.80
2023-03-19T00:45:42.317Z,33.17
2023-03-19T00:47:08.250Z,37.28
2023-03-19T00:48:30.499Z,34.58
2023-03-19T00:49:52.713Z,30.15
2023-03-19T00:51:14.780Z,30.15
2023-03-19T00:52:43.359Z,31.58
2023-03-19T00:54:05.019Z,34.03
2023-03-19T00:55:27.612Z,36.05
2023-03-19T00:56:53.756Z,35.97
2023-03-19T00:58:16.204Z,32.00
2023-03-19T00:59:38.345Z,30.25
2023-03-19T01:00:59.540Z,31.40
2023-03-19T01:02:24.892Z,34.58
2023-03-19T01:03:50.243Z,36.08
2023-03-19T01:05:17.545Z,33.15
2023-03-19T01:06:40.025Z,29.23
2023-03-19T01:08:03.015Z,28.65
2023-03-19T01:09:25.795Z,36.90
2023-03-19T01:10:47.573Z,36.65
2023-03-19T01:12:10.509Z,34.88
2023-03-19T01:13:32.551Z,33.20
2023-03-19T01:15:01.170Z,31.10
2023-03-19T01:16:23.798Z,30.55
2023-03-19T01:17:45.984Z,31.40
2023-03-19T01:19:10.055Z,36.28
2023-03-19T01:20:31.984Z,34.20
2023-03-19T01:21:54.830Z,37.17
2023-03-19T01:23:19.934Z,32.38
2023-03-19T01:24:43.320Z,36.42
2023-03-19T01:26:06.034Z,33.33
2023-03-19T01:27:27.163Z,30.48
2023-03-19T01:28:50.616Z,42.58
2023-03-19T01:30:14.671Z,39.25
2023-03-19T01:31:56.475Z,40.22
2023-03-19T01:33:35.125Z,45.78
2023-03-19T01:35:03.767Z,44.25
2023-03-19T01:36:26.684Z,40.25
2023-03-19T01:37:57.817Z,42.33
2023-03-19T01:39:28.989Z,43.85
2023-03-19T01:40:59.303Z,45.50
2023-03-19T01:42:23.848Z,52.30
2023-03-19T01:44:34.563Z,50.92
2023-03-19T01:46:44.996Z,45.90
2023-03-19T01:48:21.225Z,50.55
2023-03-19T01:49:59.745Z,47.13
2023-03-19T01:51:26.840Z,43.30
2023-03-19T01:52:48.504Z,48.00
2023-03-19T01:54:30.647Z,45.20
2023-03-19T01:56:14.308Z,45.58
2023-03-19T01:57:50.254Z,54.53
2023-03-19T01:59:41.813Z,59.17
2023-03-19T02:01:18.181Z,49.63
2023-03-19T02:02:47.835Z,48.08
2023-03-19T02:04:28.184Z,51.95
2023-03-19T02:05:54.204Z,53.28
2023-03-19T02:07:21.632Z,54.20
2023-03-19T02:08:45.656Z,84.65
2023-03-19T02:10:13.337Z,82.82
2023-03-19T02:11:42.234Z,68.88
2023-03-19T02:13:03.900Z,70.45
2023-03-19T02:14:28.893Z,66.20
2023-03-19T02:15:52.309Z,83.53
2023-03-19T02:17:15.496Z,76.20
2023-03-19T02:18:38.584Z,72.85
2023-03-19T02:20:08.873Z,52.45
2023-03-19T02:21:31.772Z,51.30
2023-03-19T02:23:01.965Z,49.90
2023-03-19T02:24:33.910Z,53.20
2023-03-19T02:26:12.353Z,46.13
2023-03-19T02:27:34.817Z,45.75
2023-03-19T02:28:57.486Z,47.83
2023-03-19T02:30:29.499Z,47.53
2023-03-19T02:31:54.635Z,51.25
2023-03-19T02:33:20.470Z,55.95
2023-03-19T02:34:44.194Z,60.25
2023-03-19T02:36:11.166Z,48.00
2023-03-19T02:37:43.942Z,47.88
2023-03-19T02:39:09.228Z,44.95
2023-03-19T02:40:35.642Z,48.13
2023-03-19T02:41:59.625Z,43.88
2023-03-19T02:43:23.908Z,48.67
2023-03-19T02:44:52.491Z,48.72
2023-03-19T02:46:14.894Z,51.22
2023-03-19T02:47:39.260Z,45.65
2023-03-19T02:49:01.281Z,51.20
2023-03-19T02:51:45.855Z,52.72
2023-03-19T02:53:08.728Z,45.55
2023-03-19T02:54:30.174Z,50.70
2023-03-19T02:55:57.066Z,52.35
2023-03-19T02:57:22.562Z,49.20
2023-03-19T02:58:45.714Z,49.75
2023-03-19T03:00:11.074Z,50.15
2023-03-19T03:01:36.053Z,49.15
2023-03-19T03:03:03.268Z,50.70
2023-03-19T03:04:24.318Z,46.75
2023-03-19T03:05:47.985Z,47.70
2023-03-19T03:07:09.383Z,47.88
2023-03-19T03:08:31.459Z,47.88
2023-03-19T03:09:57.903Z,47.40
2023-03-19T03:11:20.569Z,44.60
2023-03-19T03:12:48.204Z,47.00
2023-03-19T03:14:09.595Z,48.75
2023-03-19T03:15:31.923Z,46.55
2023-03-19T03:16:53.345Z,45.00
2023-03-19T03:19:46.701Z,43.90
2023-03-19T03:21:20.230Z,51.78
2023-03-19T03:22:43.106Z,45.92
2023-03-19T03:24:05.088Z,44.65
2023-03-19T03:25:27.441Z,49.42
2023-03-19T03:26:49.749Z,45.55
2023-03-19T03:28:15.328Z,42.88
2023-03-19T03:29:37.142Z,43.15
2023-03-19T03:31:01.294Z,47.53
2023-03-19T03:32:24.086Z,46.78
2023-03-19T03:33:45.994Z,44.42
2023-03-19T03:35:09.437Z,42.78
2023-03-19T03:36:31.183Z,38.70
2023-03-19T03:37:53.575Z,41.40
2023-03-19T03:39:14.930Z,51.05
2023-03-19T03:40:37.672Z,46.53
2023-03-19T03:41:58.904Z,44.38
2023-03-19T03:43:23.521Z,46.10
2023-03-19T03:44:45.944Z,57.63
2023-03-19T03:46:09.297Z,47.25
2023-03-19T03:47:32.509Z,43.45
2023-03-19T03:48:55.016Z,44.40
2023-03-19T03:50:20.482Z,45.05
2023-03-19T03:51:44.387Z,46.90
2023-03-19T03:53:06.899Z,42.90
2023-03-19T03:54:29.217Z,50.60
2023-03-19T03:55:53.736Z,49.92
2023-03-19T03:57:19.435Z,47.72
2023-03-19T03:58:42.493Z,49.33
2023-03-19T04:00:06.058Z,55.03
2023-03-19T04:01:35.751Z,46.55
2023-03-19T04:02:59.425Z,59.58
2023-03-19T04:04:21.028Z,48.88
2023-03-19T04:05:44.661Z,49.28
2023-03-19T04:07:10.422Z,46.58
2023-03-19T04:08:43.273Z,46.70
2023-03-19T04:10:07.770Z,50.13
2023-03-19T04:11:29.773Z,50.28
2023-03-19T04:12:52.317Z,45.22
2023-03-19T04:14:14.709Z,52.42
2023-03-19T04:15:39.614Z,43.85
2023-03-19T04:17:02.363Z,50.53
2023-03-19T04:18:25.085Z,51.67
2023-03-19T04:19:47.841Z,46.75
2023-03-19T04:21:12.482Z,47.25
2023-03-19T04:22:35.059Z,52.45
2023-03-19T04:23:56.695Z,47.97
2023-03-19T04:25:19.249Z,50.65
2023-03-19T04:26:41.507Z,45.85
2023-03-19T04:28:13.579Z,47.97
2023-03-19T04:29:37.434Z,56.08
2023-03-19T04:31:02.894Z,55.55
2023-03-19T04:32:27.331Z,50.40
2023-03-19T04:33:50.865Z,48.85
2023-03-19T04:35:15.789Z,45.65
2023-03-19T04:36:38.694Z,46.60
2023-03-19T04:38:01.788Z,49.17
2023-03-19T04:39:23.381Z,50.88
2023-03-19T04:40:49.550Z,51.15
2023-03-19T04:42:12.707Z,58.88
2023-03-19T04:43:46.732Z,45.92
2023-03-19T04:45:11.305Z,45.35
2023-03-19T04:46:34.670Z,50.03
2023-03-19T04:47:58.329Z,55.95
2023-03-19T04:49:21.415Z,50.60
2023-03-19T04:50:45.858Z,49.65
2023-03-19T04:52:07.155Z,46.83
2023-03-19T04:53:29.263Z,51.88
2023-03-19T04:54:50.697Z,42.63
2023-03-19T04:56:16.319Z,50.28
2023-03-19T04:57:38.589Z,48.45
2023-03-19T04:59:01.610Z,47.90
2023-03-19T05:00:24.730Z,45.63
2023-03-19T05:01:49.945Z,48.08
2023-03-19T05:03:16.809Z,50.28
2023-03-19T05:04:40.300Z,46.97
2023-03-19T05:06:09.298Z,48.08
2023-03-19T05:07:31.106Z,56.67
2023-03-19T05:08:56.116Z,51.03
2023-03-19T05:10:20.718Z,46.38
2023-03-19T05:11:48.384Z,46.13
2023-03-19T05:13:18.425Z,54.85
2023-03-19T05:14:45.740Z,47.40
2023-03-19T05:16:29.775Z,52.75
2023-03-19T05:17:52.514Z,42.00
2023-03-19T05:19:16.706Z,48.28
2023-03-19T05:20:39.016Z,45.67
2023-03-19T05:22:06.585Z,50.78
2023-03-19T05:23:29.478Z,53.67
2023-03-19T05:25:00.059Z,50.30
2023-03-19T05:26:22.774Z,49.72
2023-03-19T05:28:04.061Z,51.55
2023-03-19T05:29:27.269Z,53.38
2023-03-19T05:31:14.077Z,45.40
2023-03-19T05:32:43.254Z,44.55
2023-03-19T05:34:13.637Z,48.10
2023-03-19T05:35:42.923Z,47.88
2023-03-19T05:37:22.151Z,48.13
2023-03-19T05:38:49.637Z,46.28
2023-03-19T05:40:19.745Z,45.78
2023-03-19T05:41:43.858Z,43.38
2023-03-19T05:43:06.981Z,41.03
2023-03-19T05:44:50.127Z,45.85
2023-03-19T05:46:25.353Z,53.20
2023-03-19T05:47:50.585Z,46.97
2023-03-19T05:49:14.117Z,48.72
2023-03-19T05:50:37.261Z,46.67
2023-03-19T05:52:09.335Z,45.13
2023-03-19T05:53:35.320Z,42.38
2023-03-19T05:55:17.865Z,48.50
2023-03-19T05:56:44.449Z,40.88
2023-03-19T05:58:39.266Z,43.28
2023-03-19T06:00:02.345Z,37.58
2023-03-19T06:01:36.264Z,43.85
2023-03-19T06:03:07.379Z,48.03
2023-03-19T06:04:40.422Z,43.35
2023-03-19T06:06:11.416Z,44.67
2023-03-19T06:07:59.121Z,42.67
2023-03-19T06:09:50.591Z,41.13
2023-03-19T06:11:15.956Z,40.13
2023-03-19T06:12:44.964Z,40.25
2023-03-19T06:14:47.411Z,45.13
2023-03-19T06:16:32.928Z,45.33
2023-03-19T06:18:13.277Z,49.83
2023-03-19T06:19:42.419Z,43.25
2023-03-19T06:21:05.008Z,46.28
2023-03-19T06:22:27.465Z,43.33
2023-03-19T06:23:52.560Z,46.65
2023-03-19T06:25:22.096Z,44.55
2023-03-19T06:26:47.189Z,48.50
2023-03-19T06:28:10.540Z,50.65
2023-03-19T06:29:37.747Z,46.97
2023-03-19T06:31:22.629Z,45.58
2023-03-19T06:33:05.269Z,48.20
2023-03-19T06:34:30.488Z,45.33
2023-03-19T06:36:09.164Z,46.70
2023-03-19T06:37:39.559Z,44.95
2023-03-19T06:39:03.381Z,44.95
2023-03-19T06:40:26.750Z,46.50
2023-03-19T06:41:47.739Z,49.65
2023-03-19T06:43:14.311Z,48.03
2023-03-19T06:44:36.673Z,44.95
2023-03-19T06:45:58.774Z,48.80
2023-03-19T06:47:21.306Z,44.40
2023-03-19T06:48:43.791Z,49.67
2023-03-19T06:50:08.684Z,44.25
2023-03-19T06:51:35.249Z,51.65
2023-03-19T06:52:58.662Z,44.70
2023-03-19T06:54:20.708Z,48.40
2023-03-19T06:55:44.712Z,41.85
2023-03-19T06:57:07.099Z,50.08
2023-03-19T06:58:29.468Z,53.72
2023-03-19T06:59:51.945Z,50.50
2023-03-19T07:01:14.463Z,51.10
2023-03-19T07:02:37.083Z,50.33
2023-03-19T07:03:57.981Z,52.63
2023-03-19T07:05:20.382Z,47.30
2023-03-19T07:06:44.348Z,70.10
2023-03-19T07:08:12.110Z,102.95
2023-03-19T07:09:34.249Z,73.35
2023-03-19T07:10:58.523Z,86.43
2023-03-19T07:12:20.986Z,67.82
2023-03-19T07:13:43.603Z,65.57
2023-03-19T07:15:06.759Z,73.95
2023-03-19T07:16:27.716Z,64.13
2023-03-19T07:17:50.370Z,62.78
2023-03-19T07:19:12.667Z,68.70
2023-03-19T07:20:34.128Z,75.45
2023-03-19T07:21:58.353Z,77.40
2023-03-19T07:23:20.711Z,75.00
2023-03-19T07:24:42.870Z,65.97
2023-03-19T07:26:05.155Z,83.15
2023-03-19T07:27:27.085Z,61.10
2023-03-19T07:30:12.409Z,49.60
2023-03-19T07:31:34.845Z,58.97
2023-03-19T07:32:57.142Z,48.92
2023-03-19T07:35:39.761Z,38.53
2023-03-19T07:37:03.134Z,68.70
2023-03-19T07:38:25.130Z,55.67
2023-03-19T07:41:08.359Z,33.72
2023-03-19T07:42:30.278Z,37.05
2023-03-19T07:43:52.294Z,39.45
2023-03-19T07:45:14.497Z,36.83
2023-03-19T07:46:36.453Z,30.73
2023-03-19T07:49:20.669Z,29.60
2023-03-19T07:50:43.018Z,33.67
2023-03-19T07:52:06.882Z,30.17
2023-03-19T07:53:28.924Z,29.98
2023-03-19T07:54:52.490Z,28.45
2023-03-19T07:56:14.603Z,33.00
2023-03-19T07:57:36.861Z,29.65
2023-03-19T07:58:59.787Z,29.52
2023-03-19T08:00:25.415Z,31.27
2023-03-19T08:01:47.734Z,31.17
2023-03-19T08:03:10.263Z,30.00
2023-03-19T08:04:32.230Z,27.45
2023-03-19T08:05:54.062Z,26.75
2023-03-19T08:08:39.533Z,28.17
2023-03-19T08:11:24.304Z,30.98
2023-03-19T08:12:46.762Z,27.80
2023-03-19T08:14:09.203Z,32.35
2023-03-19T08:15:31.734Z,28.85
2023-03-19T08:16:53.932Z,27.15
2023-03-19T08:18:16.961Z,28.88
2023-03-19T08:19:39.322Z,28.92
2023-03-19T08:21:01.700Z,27.80
2023-03-19T08:22:25.465Z,24.92
2023-03-19T08:23:47.924Z,30.67
2023-03-19T08:25:10.744Z,28.45
2023-03-19T08:26:33.714Z,25.05
2023-03-19T08:27:56.403Z,28.88
2023-03-19T08:29:19.275Z,27.67
2023-03-19T08:30:41.570Z,28.38
2023-03-19T08:32:03.157Z,24.92
2023-03-19T08:33:25.752Z,24.80
2023-03-19T08:34:49.699Z,27.17
2023-03-19T08:36:14.277Z,31.25
2023-03-19T08:37:38.018Z,25.75
2023-03-19T08:39:00.691Z,30.00
2023-03-19T08:40:22.421Z,28.35
2023-03-19T08:41:44.768Z,25.08
2023-03-19T08:43:07.814Z,22.98
2023-03-19T08:44:30.126Z,26.42
2023-03-19T08:45:52.089Z,25.50
2023-03-19T08:47:14.726Z,27.52
2023-03-19T08:48:50.986Z,23.40
2023-03-19T08:50:47.970Z,24.88
2023-03-19T08:52:15.366Z,22.40
2023-03-19T08:53:40.130Z,23.15
2023-03-19T08:55:02.540Z,21.55
2023-03-19T08:56:25.433Z,20.38
2023-03-19T08:57:47.451Z,18.70
2023-03-19T08:59:10.038Z,19.98
2023-03-19T09:00:32.197Z,20.08
2023-03-19T09:01:55.480Z,23.05
2023-03-19T09:03:19.219Z,24.00
2023-03-19T09:04:42.507Z,20.40
2023-03-19T09:06:07.113Z,20.90
2023-03-19T09:07:29.241Z,18.58
2023-03-19T09:08:52.188Z,21.48
2023-03-19T09:10:14.430Z,21.58
2023-03-19T09:11:36.573Z,20.55
2023-03-19T09:12:58.918Z,17.60
2023-03-19T09:14:23.206Z,17.83
2023-03-19T09:15:45.298Z,18.63
2023-03-19T09:17:08.253Z,18.20
2023-03-19T09:18:31.205Z,18.85
2023-03-19T09:19:53.305Z,17.92
2023-03-19T09:21:15.400Z,19.15
2023-03-19T09:22:37.675Z,21.15
2023-03-19T09:24:01.352Z,18.15
2023-03-19T09:25:23.836Z,18.17
2023-03-19T09:26:46.212Z,22.65
2023-03-19T09:28:08.741Z,20.42
2023-03-19T09:29:31.550Z,21.15
2023-03-19T09:30:54.215Z,18.75
2023-03-19T09:32:16.678Z,18.88
2023-03-19T09:33:38.840Z,16.15
2023-03-19T09:35:00.866Z,17.15
2023-03-19T09:36:23.322Z,20.42
2023-03-19T09:37:45.942Z,15.05
2023-03-19T09:39:10.070Z,13.35
2023-03-19T09:40:38.310Z,16.05
2023-03-19T09:42:17.133Z,16.10
2023-03-19T09:43:58.285Z,16.52
2023-03-19T09:45:21.475Z,14.70
2023-03-19T09:46:48.469Z,15.35
2023-03-19T09:48:18.293Z,18.13
2023-03-19T09:49:45.012Z,24.88
2023-03-19T09:51:10.695Z,19.77
2023-03-19T09:52:43.354Z,15.07
2023-03-19T09:54:20.356Z,15.55
2023-03-19T09:55:47.020Z,20.38
2023-03-19T09:57:13.213Z,18.15
2023-03-19T09:58:38.577Z,20.33
2023-03-19T10:00:07.121Z,20.88
2023-03-19T10:01:35.801Z,16.17
2023-03-19T10:03:08.288Z,16.20
2023-03-19T10:04:43.885Z,15.63
2023-03-19T10:06:20.248Z,13.90
2023-03-19T10:07:56.991Z,14.63
2023-03-19T10:09:46.131Z,18.02
2023-03-19T10:11:29.939Z,16.42
2023-03-19T10:13:01.464Z,16.52
2023-03-19T10:14:49.490Z,13.05
2023-03-19T10:16:26.803Z,13.52
2023-03-19T10:17:58.821Z,13.93
2023-03-19T10:19:26.615Z,13.43
2023-03-19T10:20:56.844Z,14.07
2023-03-19T10:22:23.398Z,14.43
2023-03-19T10:23:50.203Z,13.85
2023-03-19T10:25:20.340Z,12.88
2023-03-19T10:26:43.565Z,12.02
2023-03-19T10:28:16.450Z,13.80
2023-03-19T10:29:39.340Z,14.38
2023-03-19T10:31:15.272Z,16.67
2023-03-19T10:32:42.521Z,15.32
2023-03-19T10:34:21.270Z,13.70
2023-03-19T10:35:46.400Z,16.38
2023-03-19T10:37:16.635Z,14.07
2023-03-19T10:38:42.612Z,16.08
2023-03-19T10:40:12.853Z,16.15
2023-03-19T10:41:51.363Z,13.55
2023-03-19T10:43:19.923Z,15.15
2023-03-19T10:44:50.262Z,15.95
2023-03-19T10:46:15.973Z,14.88
2023-03-19T10:47:41.801Z,13.15
2023-03-19T10:49:04.331Z,13.85
2023-03-19T10:50:31.766Z,16.15
2023-03-19T10:51:54.273Z,15.02
2023-03-19T10:53:32.364Z,13.73
2023-03-19T10:54:58.060Z,15.40
2023-03-19T10:56:23.274Z,13.30
2023-03-19T10:57:50.743Z,17.20
2023-03-19T10:59:28.000Z,14.50
2023-03-19T11:00:58.091Z,14.98
2023-03-19T11:02:23.401Z,14.07
2023-03-19T11:03:53.328Z,13.20
2023-03-19T11:05:26.077Z,12.23
2023-03-19T11:06:51.237Z,12.30
2023-03-19T11:08:35.010Z,13.82
2023-03-19T11:09:58.128Z,16.15
2023-03-19T11:11:28.280Z,13.70
2023-03-19T11:12:56.563Z,15.32
2023-03-19T11:14:20.979Z,11.15
2023-03-19T11:15:43.547Z,13.85
2023-03-19T11:17:08.951Z,13.10
2023-03-19T11:18:37.505Z,13.75
2023-03-19T11:20:01.122Z,16.83
2023-03-19T11:21:26.217Z,13.35
2023-03-19T11:22:51.714Z,17.73
2023-03-19T11:24:14.690Z,15.52
2023-03-19T11:25:40.839Z,13.73
2023-03-19T11:27:03.704Z,15.80
2023-03-19T11:28:33.782Z,18.23
2023-03-19T11:29:55.158Z,16.08
2023-03-19T11:31:25.622Z,18.50
2023-03-19T11:33:23.998Z,16.45
2023-03-19T11:34:54.095Z,12.85
2023-03-19T11:36:24.269Z,14.43
2023-03-19T11:37:55.998Z,13.45
2023-03-19T11:39:28.661Z,13.70
2023-03-19T11:41:02.254Z,14.25
2023-03-19T11:42:47.878Z,15.05
2023-03-19T11:44:18.156Z,17.65
2023-03-19T11:45:50.840Z,15.15
2023-03-19T11:47:27.099Z,13.60
2023-03-19T11:49:17.430Z,18.50
2023-03-19T11:50:48.295Z,16.48
2023-03-19T11:52:21.341Z,17.90
2023-03-19T11:54:00.486Z,17.45
2023-03-19T11:55:33.007Z,18.10
2023-03-19T11:57:02.395Z,19.98
2023-03-19T11:58:59.453Z,16.45
2023-03-19T12:00:33.339Z,17.58
2023-03-19T12:02:30.742Z,16.60
2023-03-19T12:04:11.221Z,20.10
2023-03-19T12:05:37.443Z,17.55
2023-03-19T12:07:08.683Z,19.63
2023-03-19T12:08:38.943Z,17.08
2023-03-19T12:10:18.702Z,18.23
2023-03-19T12:11:54.269Z,32.55
2023-03-19T12:13:32.282Z,32.92
2023-03-19T12:15:06.681Z,36.50
2023-03-19T12:16:46.562Z,41.55
2023-03-19T12:18:19.398Z,34.70
2023-03-19T12:20:12.870Z,33.15
2023-03-19T12:21:47.713Z,48.63
2023-03-19T12:23:21.707Z,58.72
2023-03-19T12:25:05.245Z,60.33
2023-03-19T12:26:33.455Z,27.90
2023-03-19T12:28:01.877Z,23.05
2023-03-19T12:29:32.033Z,21.45
2023-03-19T12:31:08.394Z,32.13
2023-03-19T12:32:54.210Z,36.33
2023-03-19T12:34:26.155Z,29.75
2023-03-19T12:35:51.910Z,24.70
2023-03-19T12:37:21.685Z,20.02
2023-03-19T12:38:52.406Z,22.58
2023-03-19T12:40:27.345Z,24.83
2023-03-19T12:42:06.669Z,22.45
2023-03-19T12:43:35.121Z,25.25
2023-03-19T12:45:00.244Z,24.15
2023-03-19T12:46:28.709Z,21.63
2023-03-19T12:47:58.621Z,28.08
2023-03-19T12:49:26.556Z,18.98
2023-03-19T12:50:54.927Z,21.48
2023-03-19T12:52:23.992Z,23.85
2023-03-19T12:53:55.517Z,19.85
2023-03-19T12:55:22.094Z,19.70
2023-03-19T12:56:51.094Z,17.63
2023-03-19T12:58:22.255Z,20.35
2023-03-19T12:59:53.243Z,16.83
2023-03-19T13:01:22.408Z,40.22
2023-03-19T13:02:49.254Z,32.88
2023-03-19T13:04:19.424Z,50.17
2023-03-19T13:05:46.090Z,15.45
2023-03-19T13:07:15.085Z,16.23
2023-03-19T13:08:45.116Z,18.58
2023-03-19T13:10:11.029Z,18.75
2023-03-19T13:11:42.576Z,20.15
2023-03-19T13:13:14.373Z,19.87
2023-03-19T13:14:48.490Z,18.77
2023-03-19T13:16:23.131Z,18.27
2023-03-19T13:17:58.495Z,15.60
2023-03-19T13:19:30.673Z,15.85
2023-03-19T13:21:05.894Z,16.80
2023-03-19T13:22:32.217Z,16.58
2023-03-19T13:24:06.444Z,19.60
2023-03-19T13:25:34.767Z,16.60
2023-03-19T13:27:01.110Z,17.73
2023-03-19T13:28:29.618Z,16.75
2023-03-19T13:30:07.839Z,17.05
2023-03-19T13:31:35.247Z,14.85
2023-03-19T13:33:05.180Z,17.88
2023-03-19T13:34:30.450Z,15.73
2023-03-19T13:35:53.810Z,15.18
2023-03-19T13:37:19.812Z,15.32
2023-03-19T13:38:46.334Z,16.70
2023-03-19T13:40:42.720Z,17.48
2023-03-19T13:42:20.193Z,16.27
2023-03-19T13:43:44.446Z,18.50
2023-03-19T13:45:51.403Z,16.38
2023-03-19T13:47:39.906Z,15.25
2023-03-19T13:49:33.756Z,14.88
2023-03-19T13:51:01.969Z,17.38
2023-03-19T13:52:49.754Z,14.27
2023-03-19T13:54:18.869Z,16.08
2023-03-19T13:55:52.516Z,17.83
2023-03-19T13:57:37.206Z,17.98
2023-03-19T13:59:25.393Z,16.60
2023-03-19T14:01:01.470Z,17.00
2023-03-19T14:02:54.544Z,13.40
2023-03-19T14:04:23.884Z,17.35
2023-03-19T14:05:49.806Z,16.75
2023-03-19T14:07:19.226Z,15.82
2023-03-19T14:08:47.828Z,14.93
2023-03-19T14:10:18.759Z,15.63
2023-03-19T14:11:41.695Z,18.23
2023-03-19T14:13:08.712Z,16.70
2023-03-19T14:14:32.171Z,15.27
2023-03-19T14:16:07.261Z,14.15
2023-03-19T14:17:35.158Z,15.85
2023-03-19T14:19:01.248Z,16.17
2023-03-19T14:20:39.323Z,17.65
2023-03-19T14:22:20.166Z,17.67
2023-03-19T14:23:46.809Z,15.88
2023-03-19T14:25:18.756Z,19.27
2023-03-19T14:26:44.815Z,18.20
2023-03-19T14:28:10.869Z,20.95
2023-03-19T14:29:36.506Z,16.35
2023-03-19T14:31:00.538Z,16.75
2023-03-19T14:32:31.579Z,14.85
2023-03-19T14:33:59.840Z,16.27
2023-03-19T14:35:26.524Z,15.50
2023-03-19T14:36:58.028Z,17.02
2023-03-19T14:38:33.452Z,13.23
2023-03-19T14:40:04.628Z,16.00
2023-03-19T14:41:32.486Z,20.05
2023-03-19T14:43:06.715Z,18.85
2023-03-19T14:44:46.028Z,15.90
2023-03-19T14:46:23.455Z,15.75
2023-03-19T14:48:08.415Z,24.70
2023-03-19T14:49:54.150Z,15.48
2023-03-19T14:51:39.836Z,16.85
2023-03-19T14:53:07.166Z,14.02
2023-03-19T14:54:37.446Z,15.77
2023-03-19T14:56:11.750Z,16.02
2023-03-19T14:57:37.420Z,16.88
2023-03-19T14:59:03.925Z,17.45
2023-03-19T15:00:26.446Z,15.55
2023-03-19T15:01:53.024Z,17.10
2023-03-19T15:03:23.116Z,14.55
2023-03-19T15:04:47.376Z,13.45
2023-03-19T15:06:13.756Z,13.20
2023-03-19T15:07:41.138Z,12.85
2023-03-19T15:09:11.495Z,16.13
2023-03-19T15:10:49.512Z,14.88
2023-03-19T15:12:31.430Z,15.77
2023-03-19T15:14:14.977Z,18.90
2023-03-19T15:15:44.546Z,15.25
2023-03-19T15:17:15.678Z,16.23
2023-03-19T15:18:39.291Z,17.92
2023-03-19T15:20:03.718Z,13.73
2023-03-19T15:21:29.755Z,13.57
2023-03-19T15:22:56.478Z,17.70
2023-03-19T15:24:19.409Z,18.48
2023-03-19T15:25:51.907Z,18.00
2023-03-19T15:27:24.521Z,17.48
2023-03-19T15:28:49.695Z,17.08
2023-03-19T15:30:22.267Z,20.35
2023-03-19T15:31:52.356Z,14.27
2023-03-19T15:33:37.307Z,17.55
2023-03-19T15:35:06.354Z,12.93
2023-03-19T15:36:37.940Z,13.88
2023-03-19T15:38:03.863Z,14.50
2023-03-19T15:39:48.763Z,18.35
2023-03-19T15:41:20.877Z,17.10
2023-03-19T15:42:45.055Z,14.88
2023-03-19T15:44:20.697Z,18.85
2023-03-19T15:45:47.637Z,16.05
2023-03-19T15:47:16.974Z,16.25
2023-03-19T15:48:45.968Z,18.45
2023-03-19T15:50:14.091Z,14.63
2023-03-19T15:51:37.323Z,15.65
2023-03-19T15:53:02.294Z,17.67
2023-03-19T15:54:25.466Z,15.75
2023-03-19T15:55:51.479Z,18.83
2023-03-19T15:57:18.385Z,16.50
2023-03-19T15:58:44.464Z,17.88
2023-03-19T16:00:11.674Z,21.35
2023-03-19T16:01:37.794Z,17.75
2023-03-19T16:03:00.187Z,19.73
2023-03-19T16:04:30.136Z,21.65
2023-03-19T16:06:00.116Z,19.45
2023-03-19T16:07:28.209Z,21.10
2023-03-19T16:08:53.631Z,19.50
2023-03-19T16:10:38.405Z,21.52
2023-03-19T16:12:01.929Z,19.60
2023-03-19T16:13:37.740Z,20.45
2023-03-19T16:15:00.412Z,19.83
2023-03-19T16:16:25.114Z,17.23
2023-03-19T16:17:49.424Z,17.30
2023-03-19T16:19:29.848Z,21.52
2023-03-19T16:21:02.120Z,19.15
2023-03-19T16:22:26.888Z,21.30
2023-03-19T16:23:56.175Z,23.08
2023-03-19T16:25:20.240Z,20.17
2023-03-19T16:26:44.757Z,20.60
2023-03-19T16:28:08.003Z,23.55
2023-03-19T16:29:35.849Z,20.10
2023-03-19T16:30:58.656Z,23.77
2023-03-19T16:32:23.586Z,20.55
2023-03-19T16:33:46.596Z,20.30
2023-03-19T16:35:14.934Z,21.85
2023-03-19T16:36:38.238Z,19.50
2023-03-19T16:38:13.778Z,25.67
2023-03-19T16:39:37.823Z,22.55
2023-03-19T16:41:18.529Z,20.08
2023-03-19T16:42:42.084Z,23.83
2023-03-19T16:44:17.058Z,24.25
2023-03-19T16:45:42.647Z,21.88
2023-03-19T16:47:12.234Z,25.17
2023-03-19T16:48:34.413Z,26.23
2023-03-19T16:49:56.854Z,25.98
2023-03-19T16:51:21.652Z,23.65
2023-03-19T16:52:44.300Z,29.15
2023-03-19T16:54:06.537Z,25.60
2023-03-19T16:55:32.271Z,26.08
2023-03-19T16:56:55.504Z,22.73
2023-03-19T16:58:20.463Z,25.55
2023-03-19T16:59:43.173Z,22.60
2023-03-19T17:01:16.142Z,22.02
2023-03-19T17:02:38.457Z,22.08
2023-03-19T17:04:01.799Z,22.67
2023-03-19T17:05:25.653Z,29.60
2023-03-19T17:06:59.402Z,26.92
2023-03-19T17:08:26.378Z,34.95
2023-03-19T17:09:48.362Z,31.27
2023-03-19T17:11:19.820Z,31.83
2023-03-19T17:12:46.603Z,26.75
2023-03-19T17:14:14.668Z,29.65
2023-03-19T17:15:40.372Z,30.85
2023-03-19T17:17:04.898Z,28.30
2023-03-19T17:18:29.634Z,32.28
2023-03-19T17:19:52.094Z,30.15
2023-03-19T17:21:17.486Z,28.45
2023-03-19T17:22:39.881Z,31.25
2023-03-19T17:25:28.514Z,32.17
2023-03-19T17:26:50.792Z,32.72
2023-03-19T17:28:13.120Z,29.85
2023-03-19T17:29:39.936Z,35.60
2023-03-19T17:31:04.177Z,39.70
2023-03-19T17:32:29.113Z,35.10
2023-03-19T17:33:57.425Z,34.67
2023-03-19T17:35:23.755Z,33.25
2023-03-19T17:36:52.661Z,37.13
2023-03-19T17:38:20.198Z,47.85
2023-03-19T17:39:43.502Z,38.13
2023-03-19T17:41:14.276Z,33.42
2023-03-19T17:42:37.583Z,33.45
2023-03-19T17:44:01.534Z,31.00
2023-03-19T17:45:27.929Z,29.38
2023-03-19T17:46:53.136Z,28.58
2023-03-19T17:48:22.704Z,32.95
2023-03-19T17:49:45.870Z,30.73
2023-03-19T17:51:08.465Z,36.22
2023-03-19T17:52:31.060Z,33.92
2023-03-19T17:53:55.593Z,39.05
2023-03-19T17:55:19.737Z,35.50
2023-03-19T17:56:44.455Z,39.35
2023-03-19T17:58:06.979Z,34.92
2023-03-19T17:59:29.022Z,41.45
2023-03-19T18:00:52.883Z,39.20
2023-03-19T18:02:33.457Z,50.83
2023-03-19T18:03:59.448Z,48.00
2023-03-19T18:05:24.012Z,47.70
2023-03-19T18:06:49.928Z,58.05
2023-03-19T18:08:15.719Z,70.50
2023-03-19T18:09:38.171Z,61.65
2023-03-19T18:11:00.012Z,58.08
2023-03-19T18:13:44.664Z,55.75
2023-03-19T18:15:08.107Z,53.67
2023-03-19T18:16:33.277Z,65.75
2023-03-19T18:17:56.994Z,62.50
2023-03-19T18:19:27.408Z,60.50
2023-03-19T18:20:50.128Z,73.45
2023-03-19T18:22:14.426Z,68.07
2023-03-19T18:23:36.736Z,49.25
2023-03-19T18:24:59.393Z,42.50
2023-03-19T18:26:24.968Z,53.42
2023-03-19T18:27:49.234Z,66.55
2023-03-19T18:29:11.774Z,54.65
2023-03-19T18:30:53.634Z,60.65
2023-03-19T18:32:24.982Z,63.80
2023-03-19T18:33:53.891Z,56.08
2023-03-19T18:35:20.078Z,52.20
2023-03-19T18:36:43.829Z,47.00
2023-03-19T18:38:13.669Z,52.60
2023-03-19T18:39:39.240Z,71.38
2023-03-19T18:41:15.860Z,58.55
2023-03-19T18:42:40.131Z,56.53
2023-03-19T18:44:05.109Z,59.42
2023-03-19T18:45:38.517Z,59.55
2023-03-19T18:47:17.686Z,60.35
2023-03-19T18:48:48.598Z,66.07
2023-03-19T18:50:23.269Z,60.85
2023-03-19T18:52:01.138Z,70.65
2023-03-19T18:53:36.421Z,54.78
2023-03-19T18:54:58.853Z,59.03
2023-03-19T18:56:24.981Z,58.50
2023-03-19T18:57:56.531Z,60.25
2023-03-19T18:59:26.190Z,53.20
2023-03-19T19:00:58.306Z,65.32
2023-03-19T19:02:32.692Z,53.13
2023-03-19T19:03:55.763Z,55.33
2023-03-19T19:05:35.407Z,70.25
2023-03-19T19:06:57.755Z,65.57
2023-03-19T19:08:32.359Z,57.88